Time;durP1;ratioP1;P1;durP2;ratioP2;P2;SDS_P1;SDS_P2;PMS_P1;PMS_P2;Temp;Humidity;BMP_temperature;BMP_pressure;BME280_temperature;BME280_humidity;BME280_pressure;Samples;Min_cycle;Max_cycle;Signal;HPM_P1;HPM_P2
2022/04/09 00:00:21;;;;;;;16.92;4.20;;;;;;;2.47;86.11;100265.06;5032477;28;20112;-83
2022/04/09 00:02:47;;;;;;;17.52;3.80;;;;;;;2.41;86.11;100271.31;5028989;28;20368;-83
2022/04/09 00:05:13;;;;;;;12.15;4.00;;;;;;;2.37;86.63;100274.94;5032388;28;20063;-83
2022/04/09 00:07:38;;;;;;;14.27;4.20;;;;;;;2.38;86.83;100279.31;5017188;28;20057;-84
2022/04/09 00:10:05;;;;;;;11.75;3.72;;;;;;;2.34;86.92;100274.16;5032826;28;20029;-84
2022/04/09 00:12:31;;;;;;;8.15;3.42;;;;;;;2.35;86.89;100287.25;5012639;28;20442;-83
2022/04/09 00:14:57;;;;;;;14.82;4.10;;;;;;;2.36;86.66;100293.38;5024454;28;20060;-83
2022/04/09 00:17:22;;;;;;;19.80;4.85;;;;;;;2.30;86.93;100288.25;5031896;28;20031;-84
2022/04/09 00:19:48;;;;;;;20.35;4.60;;;;;;;2.35;86.73;100297.75;5030857;28;20037;-83
2022/04/09 00:22:14;;;;;;;16.73;4.32;;;;;;;2.32;86.55;100297.84;5021489;28;20104;-83
2022/04/09 00:24:39;;;;;;;16.20;4.13;;;;;;;2.28;87.01;100301.44;5027758;28;20042;-83
2022/04/09 00:27:04;;;;;;;13.15;4.00;;;;;;;2.27;87.05;100310.22;5030427;28;20087;-83
2022/04/09 00:29:30;;;;;;;16.75;4.07;;;;;;;2.29;87.03;100326.78;5018134;28;20026;-83
2022/04/09 00:31:55;;;;;;;13.63;4.40;;;;;;;2.28;87.08;100327.69;5030472;28;20331;-82
2022/04/09 00:34:20;;;;;;;17.73;4.18;;;;;;;2.28;87.21;100338.19;5021238;28;20106;-83
2022/04/09 00:36:46;;;;;;;17.77;4.88;;;;;;;2.28;87.05;100335.56;5032194;28;20029;-83
2022/04/09 00:39:11;;;;;;;16.15;4.70;;;;;;;2.22;87.31;100336.59;5032185;28;20436;-83
2022/04/09 00:41:40;;;;;;;16.98;4.70;;;;;;;2.28;87.46;100350.47;5031296;28;20029;-83
2022/04/09 00:44:14;;;;;;;15.48;4.30;;;;;;;2.25;87.28;100348.78;5030538;28;20032;-83
2022/04/09 00:46:40;;;;;;;16.05;4.40;;;;;;;2.25;87.51;100340.91;5022352;28;20520;-84
2022/04/09 00:49:05;;;;;;;12.13;4.20;;;;;;;2.29;87.20;100346.94;5029455;28;20126;-83
2022/04/09 00:51:31;;;;;;;17.45;4.18;;;;;;;2.26;87.22;100353.16;5028109;28;20028;-83
2022/04/09 00:53:58;;;;;;;17.20;4.75;;;;;;;2.22;87.13;100362.00;5016992;28;20037;-83
2022/04/09 00:56:25;;;;;;;16.05;4.82;;;;;;;2.22;87.39;100373.34;5029046;28;20170;-84
2022/04/09 00:58:55;;;;;;;15.45;4.72;;;;;;;2.22;87.57;100372.50;5018332;28;20326;-84
2022/04/09 01:01:22;;;;;;;15.63;4.78;;;;;;;2.19;87.34;100386.56;5007762;28;20021;-83
2022/04/09 01:03:50;;;;;;;19.13;4.30;;;;;;;2.13;87.49;100376.22;5023009;28;20495;-84
2022/04/09 01:06:15;;;;;;;18.90;4.35;;;;;;;2.13;87.66;100385.81;4999828;28;20041;-84
2022/04/09 01:08:41;;;;;;;15.45;4.05;;;;;;;2.10;87.84;100392.03;5010554;28;20029;-84
2022/04/09 01:11:06;;;;;;;15.23;3.78;;;;;;;2.04;87.85;100389.53;5030185;28;20072;-83
2022/04/09 01:13:31;;;;;;;20.63;4.97;;;;;;;2.04;87.79;100396.53;5027725;28;20395;-83
2022/04/09 01:15:56;;;;;;;14.63;3.60;;;;;;;1.99;87.77;100408.00;5025800;28;20088;-83
2022/04/09 01:18:22;;;;;;;18.48;4.30;;;;;;;1.96;88.03;100401.97;5019602;28;20037;-83
2022/04/09 01:20:48;;;;;;;13.80;4.53;;;;;;;1.93;87.98;100413.41;5030043;28;20034;-84
2022/04/09 01:23:13;;;;;;;14.77;4.63;;;;;;;1.90;88.32;100410.84;5017796;28;20041;-83
2022/04/09 01:25:39;;;;;;;13.57;3.72;;;;;;;1.88;88.29;100415.28;5009321;28;20072;-83
2022/04/09 01:28:04;;;;;;;20.15;4.55;;;;;;;1.81;88.55;100416.31;5013025;28;20217;-83
2022/04/09 01:30:30;;;;;;;15.95;3.50;;;;;;;1.82;88.73;100425.03;5029606;28;20036;-84
2022/04/09 01:32:55;;;;;;;16.80;4.32;;;;;;;1.84;88.75;100432.00;5027555;28;20090;-83
2022/04/09 01:35:21;;;;;;;16.15;4.22;;;;;;;1.82;89.03;100433.78;5030144;28;20026;-84
2022/04/09 01:37:47;;;;;;;11.20;3.38;;;;;;;1.82;88.66;100436.41;5023306;28;20569;-84
2022/04/09 01:40:13;;;;;;;16.77;3.80;;;;;;;1.82;88.89;100433.78;5029491;28;20032;-84
2022/04/09 01:42:38;;;;;;;13.95;4.00;;;;;;;1.80;88.92;100445.19;5010148;28;20037;-84
2022/04/09 01:45:06;;;;;;;15.55;4.20;;;;;;;1.81;89.27;100452.19;5029116;28;20071;-84
2022/04/09 01:47:31;;;;;;;15.48;4.00;;;;;;;1.77;89.42;100447.91;5026922;28;20456;-85
2022/04/09 01:49:56;;;;;;;18.17;4.30;;;;;;;1.77;89.67;100458.38;5013966;28;20045;-83
2022/04/09 01:52:22;;;;;;;13.27;4.03;;;;;;;1.77;89.41;100458.38;5022796;28;20031;-84
2022/04/09 01:54:47;;;;;;;18.00;4.18;;;;;;;1.76;89.41;100462.78;5020718;28;20125;-84
2022/04/09 01:57:13;;;;;;;16.33;4.35;;;;;;;1.72;89.58;100454.09;5022425;28;20103;-83
2022/04/09 01:59:40;;;;;;;11.35;3.63;;;;;;;1.75;89.23;100477.63;5009755;28;20033;-84
2022/04/09 02:02:05;;;;;;;16.55;3.92;;;;;;;1.76;89.47;100478.53;5026990;28;20049;-84
2022/04/09 02:04:30;;;;;;;15.70;3.95;;;;;;;1.77;89.32;100485.50;5019097;28;20050;-84
2022/04/09 02:06:56;;;;;;;16.30;4.40;;;;;;;1.77;89.35;100480.25;5028982;28;20494;-85
2022/04/09 02:09:21;;;;;;;11.38;4.32;;;;;;;1.81;89.29;100487.16;5028181;28;20035;-84
2022/04/09 02:11:46;;;;;;;19.02;4.20;;;;;;;1.76;89.30;100483.78;5027009;28;20067;-84
2022/04/09 02:14:12;;;;;;;13.73;3.70;;;;;;;1.77;89.16;100496.00;5027970;28;20142;-84
2022/04/09 02:16:38;;;;;;;8.80;3.42;;;;;;;1.73;89.52;100494.31;5028749;28;20052;-84
2022/04/09 02:19:04;;;;;;;15.82;4.13;;;;;;;1.68;89.51;100504.03;5020406;28;20056;-82
2022/04/09 02:21:29;;;;;;;19.63;3.80;;;;;;;1.68;89.76;100511.91;5009112;28;20534;-83
2022/04/09 02:23:55;;;;;;;13.85;3.80;;;;;;;1.68;89.82;100519.78;5022264;28;20042;-85
2022/04/09 02:26:20;;;;;;;19.08;4.53;;;;;;;1.70;89.66;100518.84;5017548;28;20036;-83
2022/04/09 02:28:49;;;;;;;15.43;4.03;;;;;;;1.66;89.92;100527.66;5029653;28;20033;-84
2022/04/09 02:31:17;;;;;;;15.02;4.18;;;;;;;1.70;89.96;100531.97;5026798;28;20881;-83
2022/04/09 02:33:43;;;;;;;20.83;4.68;;;;;;;1.68;90.09;100532.91;5023246;28;20479;-84
2022/04/09 02:36:10;;;;;;;23.13;5.05;;;;;;;1.66;89.45;100534.69;5023962;28;20022;-83
2022/04/09 02:38:35;;;;;;;16.15;4.05;;;;;;;1.62;89.65;100536.50;5009387;28;20086;-83
2022/04/09 02:41:01;;;;;;;20.08;4.80;;;;;;;1.59;90.06;100535.69;5014279;28;20033;-83
2022/04/09 02:43:26;;;;;;;17.80;3.90;;;;;;;1.55;90.00;100541.88;5015748;28;20040;-84
2022/04/09 02:45:51;;;;;;;14.10;4.45;;;;;;;1.56;90.08;100543.63;5019156;28;20052;-83
2022/04/09 02:48:17;;;;;;;14.57;4.43;;;;;;;1.55;90.00;100542.78;5003472;28;20033;-83
2022/04/09 02:50:42;;;;;;;21.55;4.75;;;;;;;1.51;89.87;100550.72;5014097;28;20042;-83
2022/04/09 02:53:11;;;;;;;15.85;4.43;;;;;;;1.53;89.95;100551.56;5025688;28;20063;-83
2022/04/09 02:55:36;;;;;;;12.18;3.80;;;;;;;1.55;89.80;100555.00;5029241;28;20367;-83
2022/04/09 02:58:01;;;;;;;17.30;4.20;;;;;;;1.55;89.90;100563.75;5024284;28;20079;-83
2022/04/09 03:00:27;;;;;;;18.77;3.85;;;;;;;1.61;89.87;100568.00;5018911;28;20356;-83
2022/04/09 03:02:52;;;;;;;15.02;3.75;;;;;;;1.73;89.03;100573.91;5027372;28;20414;-83
2022/04/09 03:05:17;;;;;;;18.65;4.35;;;;;;;1.83;88.62;100579.81;5029277;28;20064;-83
2022/04/09 03:07:42;;;;;;;13.38;3.90;;;;;;;1.86;87.86;100590.28;5021794;28;20073;-82
2022/04/09 03:10:08;;;;;;;15.63;3.72;;;;;;;1.85;87.75;100582.44;5011517;28;20491;-83
2022/04/09 03:12:33;;;;;;;12.80;3.50;;;;;;;1.84;87.55;100591.19;5017260;28;20042;-83
2022/04/09 03:14:58;;;;;;;16.65;4.22;;;;;;;1.84;87.48;100602.56;5022455;28;20422;-83
2022/04/09 03:17:24;;;;;;;14.88;3.60;;;;;;;1.81;87.53;100600.00;5012777;28;20029;-83
2022/04/09 03:19:49;;;;;;;13.18;3.17;;;;;;;1.73;87.70;100597.50;5013365;28;20320;-83
2022/04/09 03:22:14;;;;;;;13.68;3.45;;;;;;;1.64;87.37;100594.19;5019212;28;20450;-83
2022/04/09 03:24:39;;;;;;;15.75;3.85;;;;;;;1.60;87.96;100597.78;5018550;28;20049;-83
2022/04/09 03:27:05;;;;;;;14.40;4.47;;;;;;;1.56;88.15;100606.59;5022721;28;20022;-83
2022/04/09 03:29:30;;;;;;;10.23;3.90;;;;;;;1.48;88.30;100602.34;5028907;28;20049;-82
2022/04/09 03:31:57;;;;;;;15.90;4.20;;;;;;;1.46;88.34;100606.75;5024529;28;20030;-83
2022/04/09 03:34:22;;;;;;;12.15;3.85;;;;;;;1.43;88.51;100614.66;5004282;28;20029;-83
2022/04/09 03:36:47;;;;;;;12.55;3.88;;;;;;;1.42;88.46;100623.44;5019327;28;20025;-82
2022/04/09 03:39:13;;;;;;;17.63;3.95;;;;;;;1.40;88.66;100624.34;5027450;28;20029;-83
2022/04/09 03:41:38;;;;;;;10.60;3.38;;;;;;;1.35;88.60;100624.41;5015086;28;20545;-83
2022/04/09 03:44:03;;;;;;;12.45;4.22;;;;;;;1.34;89.11;100627.03;5015831;28;20029;-82
2022/04/09 03:46:29;;;;;;;16.00;4.15;;;;;;;1.35;89.28;100639.28;5026206;28;20038;-82
2022/04/09 03:48:54;;;;;;;16.42;3.97;;;;;;;1.31;89.23;100633.22;5016530;28;20180;-83
2022/04/09 03:51:19;;;;;;;11.50;3.63;;;;;;;1.28;89.44;100635.88;5018444;28;20037;-83
2022/04/09 03:53:46;;;;;;;12.85;3.85;;;;;;;1.26;89.59;100634.19;5012831;28;20034;-83
2022/04/09 03:56:11;;;;;;;11.68;4.00;;;;;;;1.21;89.71;100632.50;5020916;28;20476;-83
2022/04/09 03:58:37;;;;;;;11.85;3.30;;;;;;;1.21;90.08;100632.50;5019590;28;20033;-83
2022/04/09 04:01:02;;;;;;;15.48;4.20;;;;;;;1.19;90.15;100636.03;5023343;28;20021;-83
2022/04/09 04:03:28;;;;;;;14.05;3.92;;;;;;;1.21;90.37;100631.63;5025514;28;20812;-82
2022/04/09 04:05:53;;;;;;;14.05;4.70;;;;;;;1.21;90.81;100643.00;5028278;28;20049;-83
2022/04/09 04:08:19;;;;;;;16.45;4.15;;;;;;;1.16;90.45;100642.19;5025544;28;20511;-83
2022/04/09 04:10:44;;;;;;;13.27;3.97;;;;;;;1.17;90.51;100654.44;5024096;28;20121;-83
2022/04/09 04:13:10;;;;;;;22.63;4.20;;;;;;;1.14;90.92;100653.59;5022859;28;20034;-83
2022/04/09 04:15:35;;;;;;;16.20;4.40;;;;;;;1.10;90.78;100652.78;5028322;28;20037;-82
2022/04/09 04:18:02;;;;;;;13.70;3.58;;;;;;;1.09;90.91;100660.69;5029078;28;20037;-83
2022/04/09 04:20:28;;;;;;;16.10;4.20;;;;;;;1.09;90.80;100663.31;5021264;28;20033;-84
2022/04/09 04:22:54;;;;;;;14.02;3.90;;;;;;;1.09;91.20;100681.66;5024783;28;20013;-84
2022/04/09 04:25:20;;;;;;;11.90;3.70;;;;;;;1.06;90.94;100673.81;5027107;28;20099;-83
2022/04/09 04:27:48;;;;;;;12.32;3.75;;;;;;;1.05;91.06;100678.19;5024639;28;20123;-84
2022/04/09 04:30:15;;;;;;;12.80;3.63;;;;;;;1.06;91.26;100687.78;5028316;28;20051;-84
2022/04/09 04:32:41;;;;;;;17.27;4.40;;;;;;;1.02;91.16;100685.25;5030990;28;20033;-84
2022/04/09 04:35:06;;;;;;;18.63;4.63;;;;;;;0.95;91.03;100680.06;5025035;28;20374;-83
2022/04/09 04:37:36;;;;;;;13.02;4.47;;;;;;;1.07;91.52;100697.38;5031285;28;20076;-83
2022/04/09 04:40:02;;;;;;;15.85;4.22;;;;;;;1.10;91.31;100691.22;5029811;28;20025;-83
2022/04/09 04:42:27;;;;;;;11.27;4.00;;;;;;;1.08;91.46;100704.34;5010778;28;20044;-83
2022/04/09 04:44:53;;;;;;;25.40;5.15;;;;;;;1.09;91.44;100700.00;4995114;28;20038;-82
2022/04/09 04:47:18;;;;;;;20.60;4.93;;;;;;;1.15;91.65;100710.38;5026663;28;20033;-84
2022/04/09 04:49:43;;;;;;;13.88;4.18;;;;;;;1.12;91.29;100702.53;5032188;28;20029;-83
2022/04/09 04:52:08;;;;;;;17.83;4.63;;;;;;;1.13;91.57;100706.91;5023326;28;20533;-84
2022/04/09 04:54:34;;;;;;;14.68;3.63;;;;;;;1.13;90.99;100706.91;5031256;28;20033;-84
2022/04/09 04:56:59;;;;;;;19.25;4.75;;;;;;;1.21;91.20;100720.75;5018304;28;20394;-84
2022/04/09 04:59:24;;;;;;;10.98;3.47;;;;;;;1.24;90.94;100718.97;5027912;28;20028;-84
2022/04/09 05:01:49;;;;;;;16.23;3.83;;;;;;;1.32;91.12;100731.09;5017872;28;20025;-84
2022/04/09 05:04:16;;;;;;;16.63;3.35;;;;;;;1.35;90.83;100725.81;5018003;28;20050;-83
2022/04/09 05:06:43;;;;;;;16.40;4.70;;;;;;;1.41;90.33;100729.19;5021153;28;20033;-82
2022/04/09 05:09:08;;;;;;;14.55;4.13;;;;;;;1.48;89.59;100733.47;5025038;28;20081;-83
2022/04/09 05:11:33;;;;;;;14.60;4.13;;;;;;;1.49;89.45;100744.84;5028856;28;20129;-83
2022/04/09 05:13:58;;;;;;;20.02;4.50;;;;;;;1.48;89.19;100743.09;5026603;28;20080;-82
2022/04/09 05:16:24;;;;;;;19.60;4.82;;;;;;;1.44;89.56;100741.41;5019598;28;20033;-83
2022/04/09 05:18:49;;;;;;;13.95;4.40;;;;;;;1.45;89.31;100751.88;5018062;28;20452;-84
2022/04/09 05:21:15;;;;;;;13.93;4.05;;;;;;;1.44;89.43;100752.78;5021786;28;20508;-84
2022/04/09 05:23:41;;;;;;;11.35;3.65;;;;;;;1.40;89.32;100755.47;5028058;28;20036;-83
2022/04/09 05:26:06;;;;;;;16.35;4.10;;;;;;;1.42;89.46;100770.31;5029889;28;20682;-83
2022/04/09 05:28:31;;;;;;;13.45;3.78;;;;;;;1.45;89.34;100769.38;5030974;28;20037;-84
2022/04/09 05:30:56;;;;;;;16.45;4.45;;;;;;;1.45;89.52;100767.59;5029193;28;20020;-83
2022/04/09 05:33:22;;;;;;;11.68;3.58;;;;;;;1.53;89.30;100779.75;5013454;28;20040;-83
2022/04/09 05:35:47;;;;;;;13.38;3.45;;;;;;;1.56;89.64;100772.72;5025177;28;20022;-83
2022/04/09 05:38:12;;;;;;;16.05;3.80;;;;;;;1.61;89.30;100781.38;5015988;28;20454;-84
2022/04/09 05:40:38;;;;;;;15.13;3.95;;;;;;;1.66;89.41;100783.91;4999755;28;20025;-83
2022/04/09 05:43:04;;;;;;;13.70;3.83;;;;;;;1.71;89.30;100803.97;5023767;28;20029;-83
2022/04/09 05:45:29;;;;;;;16.63;3.70;;;;;;;1.79;89.35;100803.81;5029968;28;20231;-83
2022/04/09 05:47:55;;;;;;;19.60;4.85;;;;;;;1.85;88.86;100800.25;5007562;28;20128;-84
2022/04/09 05:50:20;;;;;;;16.80;4.07;;;;;;;1.92;88.66;100805.41;5014272;28;20051;-83
2022/04/09 05:52:45;;;;;;;16.70;3.97;;;;;;;1.98;88.49;100821.03;5020427;28;20033;-84
2022/04/09 05:55:11;;;;;;;17.88;4.20;;;;;;;2.08;88.30;100823.50;5007651;28;20029;-84
2022/04/09 05:57:37;;;;;;;16.02;4.47;;;;;;;2.16;87.83;100816.38;5026744;28;20061;-83
2022/04/09 06:00:05;;;;;;;15.65;4.22;;;;;;;2.29;87.73;100822.28;5015153;28;20033;-84
2022/04/09 06:02:30;;;;;;;13.30;4.28;;;;;;;2.32;87.55;100814.34;5019974;28;20619;-84
2022/04/09 06:04:56;;;;;;;15.73;4.25;;;;;;;2.50;87.36;100821.91;5008855;28;20318;-83
2022/04/09 06:07:22;;;;;;;13.38;3.63;;;;;;;2.69;87.01;100830.31;5007652;28;20532;-84
2022/04/09 06:09:50;;;;;;;18.33;4.93;;;;;;;2.85;86.57;100838.78;5023016;28;20091;-83
2022/04/09 06:12:16;;;;;;;23.42;4.95;;;;;;;2.97;85.71;100846.44;5004875;28;20521;-83
2022/04/09 06:14:42;;;;;;;14.25;4.25;;;;;;;3.10;84.97;100845.31;5023949;28;20025;-85
2022/04/09 06:17:07;;;;;;;15.88;4.60;;;;;;;3.20;84.75;100838.94;5023538;28;20311;-84
2022/04/09 06:19:34;;;;;;;17.33;3.90;;;;;;;3.32;83.70;100853.59;5028856;28;20039;-84
2022/04/09 06:22:01;;;;;;;15.25;4.55;;;;;;;3.47;83.10;100860.31;5022553;28;20014;-84
2022/04/09 06:24:26;;;;;;;17.80;4.32;;;;;;;3.59;82.63;100860.03;5017321;28;20041;-84
2022/04/09 06:26:51;;;;;;;16.52;4.38;;;;;;;3.70;81.79;100859.81;5024574;28;20029;-84
2022/04/09 06:29:17;;;;;;;12.38;3.60;;;;;;;3.74;81.78;100866.75;5008510;28;20087;-85
2022/04/09 06:31:42;;;;;;;15.45;4.57;;;;;;;3.79;81.51;100870.13;5014140;28;20490;-84
2022/04/09 06:34:07;;;;;;;14.55;3.83;;;;;;;3.90;81.31;100869.91;5029051;28;20312;-84
2022/04/09 06:36:32;;;;;;;16.60;3.88;;;;;;;4.06;81.23;100878.31;5029854;28;20052;-84
2022/04/09 06:38:57;;;;;;;15.65;4.20;;;;;;;4.21;80.46;100872.66;5025100;28;20034;-84
2022/04/09 06:41:23;;;;;;;13.27;3.50;;;;;;;4.34;79.59;100884.63;5018377;28;20091;-85
2022/04/09 06:43:49;;;;;;;11.10;3.40;;;;;;;4.48;79.64;100885.16;5028143;28;20421;-85
2022/04/09 06:46:15;;;;;;;13.43;3.55;;;;;;;4.64;78.47;100884.75;5022953;28;20034;-84
2022/04/09 06:48:41;;;;;;;16.83;4.18;;;;;;;4.82;78.17;100892.22;5002332;28;20052;-84
2022/04/09 06:51:06;;;;;;;13.77;3.92;;;;;;;5.15;77.22;100895.72;5019275;28;20458;-85
2022/04/09 06:53:31;;;;;;;17.63;4.15;;;;;;;5.24;76.18;100898.09;5009802;28;20033;-84
2022/04/09 06:55:56;;;;;;;10.90;3.67;;;;;;;5.28;76.28;100898.88;5006868;28;20034;-85
2022/04/09 06:58:22;;;;;;;17.02;4.88;;;;;;;5.39;75.58;100894.16;5023953;28;20029;-84
2022/04/09 07:00:47;;;;;;;16.63;3.90;;;;;;;5.64;75.50;100888.13;5018602;28;20040;-84
2022/04/09 07:03:13;;;;;;;10.27;2.95;;;;;;;5.90;74.18;100896.16;5026508;28;20375;-84
2022/04/09 07:05:40;;;;;;;12.40;3.38;;;;;;;6.23;73.72;100909.28;5009787;28;20091;-84
2022/04/09 07:08:07;;;;;;;12.75;3.30;;;;;;;6.61;72.42;100908.03;5030564;28;20032;-85
2022/04/09 07:10:34;;;;;;;8.75;2.90;;;;;;;6.82;70.14;100913.50;5020892;28;20029;-84
2022/04/09 07:13:00;;;;;;;12.82;3.08;;;;;;;6.60;70.42;100922.13;5026694;28;20028;-84
2022/04/09 07:15:25;;;;;;;15.70;3.22;;;;;;;6.24;71.01;100903.06;5028194;28;20108;-84
2022/04/09 07:17:51;;;;;;;12.25;2.97;;;;;;;6.06;71.34;100923.00;5011826;28;20045;-83
2022/04/09 07:20:16;;;;;;;12.10;3.65;;;;;;;5.83;72.05;100921.03;5029292;28;20087;-84
2022/04/09 07:22:41;;;;;;;13.95;3.22;;;;;;;5.67;72.83;100928.53;5025965;28;20030;-85
2022/04/09 07:25:07;;;;;;;12.85;3.10;;;;;;;5.62;73.73;100925.16;5018710;28;20550;-84
2022/04/09 07:27:35;;;;;;;11.75;3.00;;;;;;;5.73;73.39;100940.72;5009725;28;20495;-84
2022/04/09 07:30:00;;;;;;;13.27;3.25;;;;;;;5.87;72.90;100948.22;5024049;28;20034;-84
2022/04/09 07:32:25;;;;;;;16.55;3.13;;;;;;;5.99;71.69;100946.09;5018550;28;20064;-85
2022/04/09 07:34:51;;;;;;;14.77;3.50;;;;;;;6.31;70.67;100944.25;5026049;28;20041;-85
2022/04/09 07:37:16;;;;;;;12.75;2.92;;;;;;;6.48;69.16;100949.00;5012345;28;20176;-84
2022/04/09 07:39:41;;;;;;;14.73;3.25;;;;;;;6.82;69.45;100954.03;5025307;28;20025;-84
2022/04/09 07:42:07;;;;;;;13.32;3.15;;;;;;;7.02;68.68;100957.78;5020516;28;20057;-83
2022/04/09 07:44:32;;;;;;;10.30;2.97;;;;;;;7.29;67.44;100963.91;5027593;28;20482;-84
2022/04/09 07:46:57;;;;;;;13.98;3.95;;;;;;;7.76;66.34;100970.13;5008825;28;20051;-83
2022/04/09 07:49:23;;;;;;;16.30;4.25;;;;;;;8.27;64.94;100968.19;5011226;28;20282;-84
2022/04/09 07:51:48;;;;;;;16.13;3.65;;;;;;;8.73;62.88;100967.22;5020480;28;20371;-84
2022/04/09 07:54:13;;;;;;;10.05;3.10;;;;;;;9.09;61.65;100971.94;5013475;28;20033;-84
2022/04/09 07:56:38;;;;;;;13.00;3.38;;;;;;;9.49;60.77;100963.13;5021968;28;20077;-84
2022/04/09 07:59:04;;;;;;;15.00;3.63;;;;;;;9.99;60.13;100967.94;5032701;28;20036;-83
2022/04/09 08:01:29;;;;;;;11.23;3.00;;;;;;;10.48;57.77;100973.59;5014721;28;20037;-84
2022/04/09 08:03:56;;;;;;;11.05;3.40;;;;;;;10.96;56.40;100969.47;5018096;28;20075;-83
2022/04/09 08:06:21;;;;;;;13.00;2.80;;;;;;;11.18;54.82;100961.22;5007221;28;20065;-83
2022/04/09 08:08:47;;;;;;;12.23;2.88;;;;;;;11.48;53.40;100975.63;5021272;28;20061;-83
2022/04/09 08:11:12;;;;;;;8.98;2.95;;;;;;;11.56;51.23;100982.34;5025738;28;20037;-84
2022/04/09 08:13:37;;;;;;;10.43;2.85;;;;;;;11.57;51.14;100978.75;5031776;28;20061;-83
2022/04/09 08:16:03;;;;;;;10.45;2.83;;;;;;;11.75;51.40;100972.44;5032284;28;20024;-84
2022/04/09 08:18:28;;;;;;;11.35;3.08;;;;;;;12.07;50.05;100967.19;5033877;28;20029;-84
2022/04/09 08:20:53;;;;;;;7.93;2.70;;;;;;;11.98;48.85;100983.72;5012064;28;20279;-83
2022/04/09 08:23:19;;;;;;;15.07;3.47;;;;;;;11.92;49.55;100976.91;5016615;28;20079;-84
2022/04/09 08:25:44;;;;;;;11.07;3.42;;;;;;;12.11;47.58;100982.94;5030588;28;20064;-84
2022/04/09 08:28:09;;;;;;;6.95;2.78;;;;;;;11.88;48.51;100968.22;5026412;28;20106;-84
2022/04/09 08:30:36;;;;;;;11.98;2.85;;;;;;;11.53;49.37;100993.19;5024048;28;20535;-84
2022/04/09 08:33:05;;;;;;;11.60;2.80;;;;;;;11.37;50.09;100986.00;5008752;28;20509;-84
2022/04/09 08:35:30;;;;;;;12.18;3.30;;;;;;;11.22;51.34;100986.78;5025839;28;20044;-84
2022/04/09 08:37:56;;;;;;;12.30;3.13;;;;;;;11.27;50.75;100976.75;5023629;28;20025;-83
2022/04/09 08:40:22;;;;;;;8.63;2.92;;;;;;;11.17;50.43;101003.00;5026077;28;20369;-83
2022/04/09 08:42:48;;;;;;;9.60;2.67;;;;;;;11.28;51.00;100990.91;5019227;28;20033;-84
2022/04/09 08:45:15;;;;;;;6.45;2.20;;;;;;;11.41;46.29;100994.66;5026522;28;20037;-85
2022/04/09 08:47:42;;;;;;;5.15;2.42;;;;;;;10.57;47.48;101006.88;5029043;28;20033;-85
2022/04/09 08:50:10;;;;;;;6.95;2.17;;;;;;;11.18;46.62;101019.84;5011320;28;20029;-84
2022/04/09 08:52:39;;;;;;;9.35;2.08;;;;;;;11.07;45.10;101016.84;5021869;28;20052;-85
2022/04/09 08:55:05;;;;;;;7.70;1.95;;;;;;;11.27;45.82;101005.19;5030112;28;20037;-84
2022/04/09 08:57:31;;;;;;;9.75;2.35;;;;;;;12.62;41.18;101014.81;5013357;28;20033;-84
2022/04/09 08:59:56;;;;;;;6.70;1.83;;;;;;;13.67;38.44;101010.47;5025623;28;20030;-83
2022/04/09 09:02:21;;;;;;;7.47;2.08;;;;;;;13.63;39.52;101017.81;5029527;28;20386;-84
2022/04/09 09:04:47;;;;;;;6.60;1.90;;;;;;;12.88;39.68;101030.22;5018604;28;20054;-84
2022/04/09 09:07:17;;;;;;;6.63;2.15;;;;;;;12.70;40.22;101023.25;5026111;28;20072;-84
2022/04/09 09:09:42;;;;;;;7.05;2.03;;;;;;;13.15;39.54;101014.41;5011364;28;20096;-82
2022/04/09 09:12:08;;;;;;;7.15;2.20;;;;;;;13.90;37.57;101015.25;5020114;28;20564;-84
2022/04/09 09:14:34;;;;;;;4.93;1.90;;;;;;;13.53;36.22;101021.97;5015193;28;20271;-84
2022/04/09 09:17:02;;;;;;;5.30;2.17;;;;;;;12.60;39.09;101038.09;5011262;28;20108;-83
2022/04/09 09:19:45;;;;;;;5.55;2.25;;;;;;;11.73;42.38;101048.97;5011348;28;20052;-84
2022/04/09 09:22:11;;;;;;;6.47;2.13;;;;;;;10.83;42.67;101045.56;5015183;28;20702;-84
2022/04/09 09:24:37;;;;;;;6.95;1.70;;;;;;;11.34;40.83;101060.78;5027876;28;20033;-87
2022/04/09 09:27:04;;;;;;;7.22;2.45;;;;;;;12.14;38.81;101045.97;5032482;28;20032;-89
2022/04/09 09:29:30;;;;;;;7.40;1.88;;;;;;;11.50;39.31;101049.34;5032455;28;20422;-91
2022/04/09 09:32:01;;;;;;;5.40;1.80;;;;;;;10.65;41.42;101048.16;5027662;28;20038;-90
2022/04/09 09:34:28;;;;;;;4.68;1.63;;;;;;;12.43;39.94;101049.72;5022277;28;20029;-88
2022/04/09 09:36:53;;;;;;;5.57;1.70;;;;;;;13.92;37.39;101040.09;5011675;28;20086;-90
2022/04/09 09:39:24;;;;;;;6.20;1.80;;;;;;;14.10;37.43;101045.25;5034314;28;20071;-90
2022/04/09 09:41:54;;;;;;;4.40;1.40;;;;;;;13.49;36.28;101054.34;5028340;28;20517;-88
2022/04/09 09:44:21;;;;;;;4.15;1.60;;;;;;;12.48;36.75;101052.13;5021260;28;20155;-92
2022/04/09 09:46:49;;;;;;;4.20;1.50;;;;;;;11.94;40.30;101063.88;5021568;28;20492;-89
2022/04/09 09:49:15;;;;;;;5.53;1.75;;;;;;;11.41;42.24;101071.97;5030264;28;20038;-90
2022/04/09 09:51:42;;;;;;;5.50;1.45;;;;;;;10.75;43.83;101069.91;5019286;28;20069;-91
2022/04/09 09:54:13;;;;;;;5.38;1.45;;;;;;;10.17;45.44;101062.81;5028186;28;20438;-90
2022/04/09 09:56:43;;;;;;;4.00;1.30;;;;;;;9.82;46.53;101055.53;5023994;28;20109;-91
2022/04/09 09:59:13;;;;;;;4.70;1.30;;;;;;;10.20;45.69;101056.50;5027916;28;20044;-90
2022/04/09 10:01:43;;;;;;;2.92;1.60;;;;;;;10.25;45.05;101059.84;5017535;28;20009;-90
2022/04/09 10:04:11;;;;;;;4.43;1.40;;;;;;;12.69;40.27;101061.59;5007324;28;20073;-92
2022/04/09 10:06:38;;;;;;;8.07;1.60;;;;;;;14.81;34.76;101042.50;4993117;28;20048;-91
2022/04/09 10:09:08;;;;;;;5.57;1.38;;;;;;;14.98;32.13;101053.94;5029343;28;20813;-92
2022/04/09 10:11:42;;;;;;;4.03;1.40;;;;;;;15.86;31.38;101056.00;5024628;28;20055;-91
2022/04/09 10:14:10;;;;;;;3.65;1.27;;;;;;;15.01;31.31;101062.66;5009144;28;20538;-88
2022/04/09 10:16:36;;;;;;;2.65;1.20;;;;;;;14.43;32.12;101043.13;5012075;28;20479;-89
2022/04/09 10:19:04;;;;;;;2.95;1.40;;;;;;;15.36;31.61;101048.69;5011636;28;20475;-90
2022/04/09 10:21:32;;;;;;;4.57;1.20;;;;;;;15.25;31.25;101056.59;5030769;28;20383;-90
2022/04/09 10:23:59;;;;;;;4.47;1.58;;;;;;;15.14;30.88;101063.56;5029705;28;20029;-90
2022/04/09 10:26:25;;;;;;;6.10;1.27;;;;;;;14.66;31.54;101052.38;5014255;28;20036;-90
2022/04/09 10:28:51;;;;;;;3.65;1.30;;;;;;;14.11;31.28;101065.72;5012206;28;20029;-90
2022/04/09 10:31:23;;;;;;;4.18;1.40;;;;;;;13.01;33.87;101069.59;4983947;28;20144;-89
2022/04/09 10:33:54;;;;;;;4.72;1.50;;;;;;;13.16;34.02;101060.69;5014657;28;20036;-90
2022/04/09 10:36:40;;;;;;;4.72;1.40;;;;;;;15.72;31.75;101060.59;5005146;28;20037;-90
2022/04/09 10:39:39;;;;;;;3.67;1.23;;;;;;;16.97;28.87;101067.78;5020543;28;20049;-91
2022/04/09 10:42:05;;;;;;;2.90;1.02;;;;;;;18.17;26.17;101057.63;5021450;28;20029;-91
2022/04/09 10:44:36;;;;;;;4.78;1.30;;;;;;;17.53;27.40;101061.78;5028994;28;20029;-91
2022/04/09 10:47:05;;;;;;;4.28;1.02;;;;;;;18.19;26.45;101054.84;5028371;28;20037;-90
2022/04/09 10:49:31;;;;;;;2.33;1.00;;;;;;;19.39;24.46;101057.53;5028226;28;20025;-90
2022/04/09 10:52:14;;;;;;;3.97;0.90;;;;;;;19.70;25.22;101056.81;5015702;28;20029;-91
2022/04/09 10:54:43;;;;;;;2.42;1.15;;;;;;;20.25;22.45;101081.72;4995790;28;20275;-89
2022/04/09 10:57:22;;;;;;;4.45;1.30;;;;;;;20.23;24.48;101060.25;5012682;28;20133;-92
2022/04/09 10:59:57;;;;;;;2.13;1.10;;;;;;;19.93;23.68;101076.41;5028314;28;20049;-89
2022/04/09 11:02:24;;;;;;;4.57;1.10;;;;;;;19.92;23.37;101062.06;5028582;28;20041;-92
2022/04/09 11:04:49;;;;;;;4.85;1.42;;;;;;;20.46;21.83;101076.28;4999384;28;20438;-91
2022/04/09 11:07:20;;;;;;;5.75;1.15;;;;;;;21.52;22.20;101062.13;5026137;28;20029;-90
2022/04/09 11:10:03;;;;;;;4.78;1.05;;;;;;;22.07;21.48;101062.28;5011812;28;20037;-90
2022/04/09 11:12:31;;;;;;;4.35;1.20;;;;;;;21.66;19.23;101060.84;5026620;28;20041;-91
2022/04/09 11:15:05;;;;;;;5.65;1.45;;;;;;;22.25;21.12;101060.56;5028245;28;20045;-90
2022/04/09 11:17:31;;;;;;;3.72;0.82;;;;;;;23.00;19.32;101068.66;5029885;28;20036;-90
2022/04/09 11:20:04;;;;;;;4.00;0.90;;;;;;;23.42;19.59;101059.91;5025503;28;20037;-92